Paradise, Pennsylvania
Current Conditions -  °F | °C
As of 3:53 PM on Tuesday 21 Oct 2014 (Local Time) from KLNS Reporting Station
Clear Clear  
Wind Chill: 63°   Ceiling: Unl
Heat Index: 63°   Visibility: 10mi
Dew Point: 48°   Wind: 0mph
Humidity: 58%   Direction: NA
Pressure: 29.81"   Gusts: NA
Location:  40.01°N, 76.12°W
Report Text: KLNS 211953Z 00000KT 10SM CLR 17/09 A2981 RMK AO2 SLP095 T01720089
Loading
Personal Weather Stations






























Interactive Weather Map New forecast layout! Learn more

10-Day Weather Forecast

Advertisements
Track Severe Weather on mobile